sensor_id;sensor_type;location;lat;lon;timestamp;temperature;humidity
2002;DHT22;1003;48.002;7.788;2023-03-14T00:00:56;9.60;99.90
2002;DHT22;1003;48.002;7.788;2023-03-14T00:03:25;9.60;99.90
2002;DHT22;1003;48.002;7.788;2023-03-14T00:05:52;9.70;99.90
2002;DHT22;1003;48.002;7.788;2023-03-14T00:08:19;9.80;99.90
2002;DHT22;1003;48.002;7.788;2023-03-14T00:10:46;9.80;99.90
2002;DHT22;1003;48.002;7.788;2023-03-14T00:13:13;9.80;99.90
2002;DHT22;1003;48.002;7.788;2023-03-14T00:15:40;9.90;99.90
2002;DHT22;1003;48.002;7.788;2023-03-14T00:18:07;9.90;99.90
2002;DHT22;1003;48.002;7.788;2023-03-14T00:20:36;10.00;99.90
2002;DHT22;1003;48.002;7.788;2023-03-14T00:23:03;10.20;99.90
2002;DHT22;1003;48.002;7.788;2023-03-14T00:25:30;10.30;99.90
2002;DHT22;1003;48.002;7.788;2023-03-14T00:27:57;10.30;99.90
2002;DHT22;1003;48.002;7.788;2023-03-14T00:30:24;10.40;99.90
2002;DHT22;1003;48.002;7.788;2023-03-14T00:32:51;10.50;99.90
2002;DHT22;1003;48.002;7.788;2023-03-14T00:35:18;10.60;99.90
2002;DHT22;1003;48.002;7.788;2023-03-14T00:37:46;10.70;99.90
2002;DHT22;1003;48.002;7.788;2023-03-14T00:40:13;10.90;99.90
2002;DHT22;1003;48.002;7.788;2023-03-14T00:42:40;11.00;99.90
2002;DHT22;1003;48.002;7.788;2023-03-14T00:45:08;11.10;99.90
2002;DHT22;1003;48.002;7.788;2023-03-14T00:47:36;11.20;99.90
2002;DHT22;1003;48.002;7.788;2023-03-14T00:50:03;11.20;99.90
2002;DHT22;1003;48.002;7.788;2023-03-14T00:52:31;11.20;99.90
2002;DHT22;1003;48.002;7.788;2023-03-14T00:55:00;11.20;99.90
2002;DHT22;1003;48.002;7.788;2023-03-14T00:57:27;11.20;99.90
2002;DHT22;1003;48.002;7.788;2023-03-14T00:59:54;11.20;99.90
2002;DHT22;1003;48.002;7.788;2023-03-14T01:02:21;11.20;99.90
2002;DHT22;1003;48.002;7.788;2023-03-14T01:04:48;11.20;99.90
2002;DHT22;1003;48.002;7.788;2023-03-14T01:07:15;11.10;99.90
2002;DHT22;1003;48.002;7.788;2023-03-14T01:09:42;11.10;99.90
2002;DHT22;1003;48.002;7.788;2023-03-14T01:12:11;10.90;99.90
2002;DHT22;1003;48.002;7.788;2023-03-14T01:14:38;11.00;99.90
2002;DHT22;1003;48.002;7.788;2023-03-14T01:17:05;10.90;99.90
2002;DHT22;1003;48.002;7.788;2023-03-14T01:19:32;10.90;99.90
2002;DHT22;1003;48.002;7.788;2023-03-14T01:21:59;11.10;99.90
2002;DHT22;1003;48.002;7.788;2023-03-14T01:24:26;11.20;99.90
2002;DHT22;1003;48.002;7.788;2023-03-14T01:26:53;11.30;99.90
2002;DHT22;1003;48.002;7.788;2023-03-14T01:29:21;11.20;99.90
2002;DHT22;1003;48.002;7.788;2023-03-14T01:31:48;11.10;99.90
2002;DHT22;1003;48.002;7.788;2023-03-14T01:34:15;11.10;99.90
2002;DHT22;1003;48.002;7.788;2023-03-14T01:36:42;11.00;99.90
2002;DHT22;1003;48.002;7.788;2023-03-14T01:39:09;11.00;99.90
2002;DHT22;1003;48.002;7.788;2023-03-14T01:41:36;10.90;99.90
2002;DHT22;1003;48.002;7.788;2023-03-14T01:44:04;11.00;99.90
2002;DHT22;1003;48.002;7.788;2023-03-14T01:46:36;10.90;99.90
2002;DHT22;1003;48.002;7.788;2023-03-14T01:49:13;10.80;99.90
2002;DHT22;1003;48.002;7.788;2023-03-14T01:51:50;10.70;99.90
2002;DHT22;1003;48.002;7.788;2023-03-14T01:54:26;10.70;99.90
2002;DHT22;1003;48.002;7.788;2023-03-14T01:57:01;10.60;99.90
2002;DHT22;1003;48.002;7.788;2023-03-14T01:59:32;10.60;99.90
2002;DHT22;1003;48.002;7.788;2023-03-14T02:02:03;10.60;99.90
2002;DHT22;1003;48.002;7.788;2023-03-14T02:04:34;10.60;99.90
2002;DHT22;1003;48.002;7.788;2023-03-14T02:07:07;10.50;99.90
2002;DHT22;1003;48.002;7.788;2023-03-14T02:09:39;10.40;99.90
2002;DHT22;1003;48.002;7.788;2023-03-14T02:12:08;10.50;99.90
2002;DHT22;1003;48.002;7.788;2023-03-14T02:14:37;10.40;99.90
2002;DHT22;1003;48.002;7.788;2023-03-14T02:17:06;10.40;99.90
2002;DHT22;1003;48.002;7.788;2023-03-14T02:19:50;10.50;99.90
2002;DHT22;1003;48.002;7.788;2023-03-14T02:22:31;10.50;99.90
2002;DHT22;1003;48.002;7.788;2023-03-14T02:25:04;10.60;99.90
2002;DHT22;1003;48.002;7.788;2023-03-14T02:27:36;10.70;99.90
2002;DHT22;1003;48.002;7.788;2023-03-14T02:30:06;10.60;99.90
2002;DHT22;1003;48.002;7.788;2023-03-14T02:32:38;10.70;99.90
2002;DHT22;1003;48.002;7.788;2023-03-14T02:35:11;10.60;99.90
2002;DHT22;1003;48.002;7.788;2023-03-14T02:37:45;10.60;99.90
2002;DHT22;1003;48.002;7.788;2023-03-14T02:40:15;10.60;99.90
2002;DHT22;1003;48.002;7.788;2023-03-14T02:42:44;10.60;99.90
2002;DHT22;1003;48.002;7.788;2023-03-14T02:45:38;10.60;99.90
2002;DHT22;1003;48.002;7.788;2023-03-14T02:48:10;10.60;99.90
2002;DHT22;1003;48.002;7.788;2023-03-14T02:50:41;10.60;99.90
2002;DHT22;1003;48.002;7.788;2023-03-14T02:53:12;10.50;99.90
2002;DHT22;1003;48.002;7.788;2023-03-14T02:55:45;10.50;99.90
2002;DHT22;1003;48.002;7.788;2023-03-14T02:58:15;10.50;99.90
2002;DHT22;1003;48.002;7.788;2023-03-14T03:00:42;10.60;99.90
2002;DHT22;1003;48.002;7.788;2023-03-14T03:03:10;10.60;99.90
2002;DHT22;1003;48.002;7.788;2023-03-14T03:05:37;10.60;99.90
2002;DHT22;1003;48.002;7.788;2023-03-14T03:08:04;10.70;99.90
2002;DHT22;1003;48.002;7.788;2023-03-14T03:10:32;10.60;99.90
2002;DHT22;1003;48.002;7.788;2023-03-14T03:12:59;10.60;99.90
2002;DHT22;1003;48.002;7.788;2023-03-14T03:15:28;10.70;99.90
2002;DHT22;1003;48.002;7.788;2023-03-14T03:17:56;10.60;99.90
2002;DHT22;1003;48.002;7.788;2023-03-14T03:20:23;10.70;99.90
2002;DHT22;1003;48.002;7.788;2023-03-14T03:22:50;10.60;99.90
2002;DHT22;1003;48.002;7.788;2023-03-14T03:25:17;10.60;99.90
2002;DHT22;1003;48.002;7.788;2023-03-14T03:27:44;10.60;99.90
2002;DHT22;1003;48.002;7.788;2023-03-14T03:30:12;10.60;99.90
2002;DHT22;1003;48.002;7.788;2023-03-14T03:32:41;10.50;99.90
2002;DHT22;1003;48.002;7.788;2023-03-14T03:35:09;10.50;99.90
2002;DHT22;1003;48.002;7.788;2023-03-14T03:37:36;10.50;99.90
2002;DHT22;1003;48.002;7.788;2023-03-14T03:40:05;10.50;99.90
2002;DHT22;1003;48.002;7.788;2023-03-14T03:42:33;10.50;99.90
2002;DHT22;1003;48.002;7.788;2023-03-14T03:45:02;10.50;99.90
2002;DHT22;1003;48.002;7.788;2023-03-14T03:47:31;10.60;99.90
2002;DHT22;1003;48.002;7.788;2023-03-14T03:49:59;10.70;99.90
2002;DHT22;1003;48.002;7.788;2023-03-14T03:52:26;10.60;99.90
2002;DHT22;1003;48.002;7.788;2023-03-14T03:54:56;10.40;99.90
2002;DHT22;1003;48.002;7.788;2023-03-14T03:57:23;10.40;99.90
2002;DHT22;1003;48.002;7.788;2023-03-14T03:59:50;10.40;99.90
2002;DHT22;1003;48.002;7.788;2023-03-14T04:02:17;10.50;99.90
2002;DHT22;1003;48.002;7.788;2023-03-14T04:04:44;10.40;99.90
2002;DHT22;1003;48.002;7.788;2023-03-14T04:07:13;10.40;99.90
2002;DHT22;1003;48.002;7.788;2023-03-14T04:09:40;10.40;99.90
2002;DHT22;1003;48.002;7.788;2023-03-14T04:12:07;10.40;99.90
2002;DHT22;1003;48.002;7.788;2023-03-14T04:14:36;10.40;99.90
2002;DHT22;1003;48.002;7.788;2023-03-14T04:17:03;10.50;99.90
2002;DHT22;1003;48.002;7.788;2023-03-14T04:19:30;10.60;99.90
2002;DHT22;1003;48.002;7.788;2023-03-14T04:21:57;10.60;99.90
2002;DHT22;1003;48.002;7.788;2023-03-14T04:24:25;10.60;99.90
2002;DHT22;1003;48.002;7.788;2023-03-14T04:26:52;10.60;99.90
2002;DHT22;1003;48.002;7.788;2023-03-14T04:29:20;10.60;99.90
2002;DHT22;1003;48.002;7.788;2023-03-14T04:31:47;10.50;99.90
2002;DHT22;1003;48.002;7.788;2023-03-14T04:34:14;10.40;99.90
2002;DHT22;1003;48.002;7.788;2023-03-14T04:36:41;10.40;99.90
2002;DHT22;1003;48.002;7.788;2023-03-14T04:39:08;10.40;99.90
2002;DHT22;1003;48.002;7.788;2023-03-14T04:41:36;10.40;99.90
2002;DHT22;1003;48.002;7.788;2023-03-14T04:44:03;10.40;99.90
2002;DHT22;1003;48.002;7.788;2023-03-14T04:46:30;10.30;99.90
2002;DHT22;1003;48.002;7.788;2023-03-14T04:48:57;10.30;99.90
2002;DHT22;1003;48.002;7.788;2023-03-14T04:51:24;10.30;99.90
2002;DHT22;1003;48.002;7.788;2023-03-14T04:53:53;10.20;99.90
2002;DHT22;1003;48.002;7.788;2023-03-14T04:56:20;10.10;99.90
2002;DHT22;1003;48.002;7.788;2023-03-14T04:58:49;10.20;99.90
2002;DHT22;1003;48.002;7.788;2023-03-14T05:01:16;10.20;99.90
2002;DHT22;1003;48.002;7.788;2023-03-14T05:03:44;10.10;99.90
2002;DHT22;1003;48.002;7.788;2023-03-14T05:06:11;10.00;99.90
2002;DHT22;1003;48.002;7.788;2023-03-14T05:08:38;10.00;99.90
2002;DHT22;1003;48.002;7.788;2023-03-14T05:11:06;9.90;99.90
2002;DHT22;1003;48.002;7.788;2023-03-14T05:13:33;9.90;99.90
2002;DHT22;1003;48.002;7.788;2023-03-14T05:16:09;9.90;99.90
2002;DHT22;1003;48.002;7.788;2023-03-14T05:18:37;9.90;99.90
2002;DHT22;1003;48.002;7.788;2023-03-14T05:21:05;9.90;99.90
2002;DHT22;1003;48.002;7.788;2023-03-14T05:23:32;10.00;99.90
2002;DHT22;1003;48.002;7.788;2023-03-14T05:25:59;10.00;99.90
2002;DHT22;1003;48.002;7.788;2023-03-14T05:28:26;10.10;99.90
2002;DHT22;1003;48.002;7.788;2023-03-14T05:30:53;10.10;99.90
2002;DHT22;1003;48.002;7.788;2023-03-14T05:33:22;10.00;99.90
2002;DHT22;1003;48.002;7.788;2023-03-14T05:35:49;10.00;99.90
2002;DHT22;1003;48.002;7.788;2023-03-14T05:38:16;10.00;99.90
2002;DHT22;1003;48.002;7.788;2023-03-14T05:40:44;9.90;99.90
2002;DHT22;1003;48.002;7.788;2023-03-14T05:43:12;10.00;99.90
2002;DHT22;1003;48.002;7.788;2023-03-14T05:45:41;10.00;99.90
2002;DHT22;1003;48.002;7.788;2023-03-14T05:48:09;10.00;99.90
2002;DHT22;1003;48.002;7.788;2023-03-14T05:50:37;10.00;99.90
2002;DHT22;1003;48.002;7.788;2023-03-14T05:53:04;10.00;99.90
2002;DHT22;1003;48.002;7.788;2023-03-14T05:55:32;10.10;99.90
2002;DHT22;1003;48.002;7.788;2023-03-14T05:57:59;10.20;99.90
2002;DHT22;1003;48.002;7.788;2023-03-14T06:00:26;10.30;99.90
2002;DHT22;1003;48.002;7.788;2023-03-14T06:02:53;10.30;99.90
2002;DHT22;1003;48.002;7.788;2023-03-14T06:05:20;10.30;99.90
2002;DHT22;1003;48.002;7.788;2023-03-14T06:07:48;10.40;99.90
2002;DHT22;1003;48.002;7.788;2023-03-14T06:10:16;10.40;99.90
2002;DHT22;1003;48.002;7.788;2023-03-14T06:12:43;10.40;99.90
2002;DHT22;1003;48.002;7.788;2023-03-14T06:15:12;10.40;99.90
2002;DHT22;1003;48.002;7.788;2023-03-14T06:17:39;10.40;99.90
2002;DHT22;1003;48.002;7.788;2023-03-14T06:20:07;10.60;99.90
2002;DHT22;1003;48.002;7.788;2023-03-14T06:22:35;10.50;99.90
2002;DHT22;1003;48.002;7.788;2023-03-14T06:25:05;10.50;99.90
2002;DHT22;1003;48.002;7.788;2023-03-14T06:27:33;10.60;99.90
2002;DHT22;1003;48.002;7.788;2023-03-14T06:30:00;10.60;99.90
2002;DHT22;1003;48.002;7.788;2023-03-14T06:32:28;10.60;99.90
2002;DHT22;1003;48.002;7.788;2023-03-14T06:34:55;10.60;99.90
2002;DHT22;1003;48.002;7.788;2023-03-14T06:37:22;10.60;99.90
2002;DHT22;1003;48.002;7.788;2023-03-14T06:39:50;10.70;99.90
2002;DHT22;1003;48.002;7.788;2023-03-14T06:42:18;10.70;99.90
2002;DHT22;1003;48.002;7.788;2023-03-14T06:44:45;10.80;99.90
2002;DHT22;1003;48.002;7.788;2023-03-14T06:47:12;11.10;99.90
2002;DHT22;1003;48.002;7.788;2023-03-14T06:49:39;11.20;99.90
2002;DHT22;1003;48.002;7.788;2023-03-14T06:52:06;11.30;99.90
2002;DHT22;1003;48.002;7.788;2023-03-14T06:54:33;11.50;99.90
2002;DHT22;1003;48.002;7.788;2023-03-14T06:57:00;11.60;99.90
2002;DHT22;1003;48.002;7.788;2023-03-14T06:59:29;11.80;99.90
2002;DHT22;1003;48.002;7.788;2023-03-14T07:01:56;11.90;99.90
2002;DHT22;1003;48.002;7.788;2023-03-14T07:04:23;12.00;99.90
2002;DHT22;1003;48.002;7.788;2023-03-14T07:06:50;12.10;99.90
2002;DHT22;1003;48.002;7.788;2023-03-14T07:09:17;12.20;99.90
2002;DHT22;1003;48.002;7.788;2023-03-14T07:11:44;12.10;99.90
2002;DHT22;1003;48.002;7.788;2023-03-14T07:14:11;12.00;99.90
2002;DHT22;1003;48.002;7.788;2023-03-14T07:16:40;11.90;99.90
2002;DHT22;1003;48.002;7.788;2023-03-14T07:19:07;12.00;99.90
2002;DHT22;1003;48.002;7.788;2023-03-14T07:21:34;11.90;99.90
2002;DHT22;1003;48.002;7.788;2023-03-14T07:24:01;12.00;99.90
2002;DHT22;1003;48.002;7.788;2023-03-14T07:26:28;12.00;99.90
2002;DHT22;1003;48.002;7.788;2023-03-14T07:28:55;12.10;99.90
2002;DHT22;1003;48.002;7.788;2023-03-14T07:31:23;12.30;99.90
2002;DHT22;1003;48.002;7.788;2023-03-14T07:33:51;12.60;99.90
2002;DHT22;1003;48.002;7.788;2023-03-14T07:36:18;12.60;99.90
2002;DHT22;1003;48.002;7.788;2023-03-14T07:38:45;12.60;99.90
2002;DHT22;1003;48.002;7.788;2023-03-14T07:41:13;12.50;99.90
2002;DHT22;1003;48.002;7.788;2023-03-14T07:43:41;12.50;99.90
2002;DHT22;1003;48.002;7.788;2023-03-14T07:46:08;12.50;99.90
2002;DHT22;1003;48.002;7.788;2023-03-14T07:48:35;12.40;99.90
2002;DHT22;1003;48.002;7.788;2023-03-14T07:51:04;12.40;99.90
2002;DHT22;1003;48.002;7.788;2023-03-14T07:53:31;12.30;99.90
2002;DHT22;1003;48.002;7.788;2023-03-14T07:55:59;12.30;99.90
2002;DHT22;1003;48.002;7.788;2023-03-14T07:58:26;12.30;99.90
2002;DHT22;1003;48.002;7.788;2023-03-14T08:00:53;12.50;99.90
2002;DHT22;1003;48.002;7.788;2023-03-14T08:03:20;12.30;99.90
2002;DHT22;1003;48.002;7.788;2023-03-14T08:05:48;12.20;99.90
2002;DHT22;1003;48.002;7.788;2023-03-14T08:08:17;12.10;99.90
2002;DHT22;1003;48.002;7.788;2023-03-14T08:10:45;12.30;99.90
2002;DHT22;1003;48.002;7.788;2023-03-14T08:13:13;12.30;99.90
2002;DHT22;1003;48.002;7.788;2023-03-14T08:15:40;12.20;99.90
2002;DHT22;1003;48.002;7.788;2023-03-14T08:18:07;12.10;99.90
2002;DHT22;1003;48.002;7.788;2023-03-14T08:20:36;11.90;99.90
2002;DHT22;1003;48.002;7.788;2023-03-14T08:23:05;12.00;99.90
2002;DHT22;1003;48.002;7.788;2023-03-14T08:25:34;12.00;99.90
2002;DHT22;1003;48.002;7.788;2023-03-14T08:28:01;12.00;99.90
2002;DHT22;1003;48.002;7.788;2023-03-14T08:30:28;12.10;99.90
2002;DHT22;1003;48.002;7.788;2023-03-14T08:32:56;12.20;99.90
2002;DHT22;1003;48.002;7.788;2023-03-14T08:35:24;12.10;99.90
2002;DHT22;1003;48.002;7.788;2023-03-14T08:37:51;12.10;99.90
2002;DHT22;1003;48.002;7.788;2023-03-14T08:40:19;12.00;99.90
2002;DHT22;1003;48.002;7.788;2023-03-14T08:42:47;12.10;99.90
2002;DHT22;1003;48.002;7.788;2023-03-14T08:45:15;12.30;99.90
2002;DHT22;1003;48.002;7.788;2023-03-14T08:47:43;12.30;99.90
2002;DHT22;1003;48.002;7.788;2023-03-14T08:50:11;12.40;99.90
2002;DHT22;1003;48.002;7.788;2023-03-14T08:52:39;12.40;99.90
2002;DHT22;1003;48.002;7.788;2023-03-14T08:55:07;12.50;99.90
2002;DHT22;1003;48.002;7.788;2023-03-14T08:57:35;12.60;99.90
2002;DHT22;1003;48.002;7.788;2023-03-14T09:00:05;12.60;99.90
2002;DHT22;1003;48.002;7.788;2023-03-14T09:02:36;12.70;99.90
2002;DHT22;1003;48.002;7.788;2023-03-14T09:05:04;12.80;99.90
2002;DHT22;1003;48.002;7.788;2023-03-14T09:07:31;12.90;99.90
2002;DHT22;1003;48.002;7.788;2023-03-14T09:09:58;13.00;99.90
2002;DHT22;1003;48.002;7.788;2023-03-14T09:12:25;13.10;99.90
2002;DHT22;1003;48.002;7.788;2023-03-14T09:14:52;13.00;99.90
2002;DHT22;1003;48.002;7.788;2023-03-14T09:17:21;12.90;99.90
2002;DHT22;1003;48.002;7.788;2023-03-14T09:19:48;12.80;99.90
2002;DHT22;1003;48.002;7.788;2023-03-14T09:22:15;12.70;99.90
2002;DHT22;1003;48.002;7.788;2023-03-14T09:24:42;12.70;99.90
2002;DHT22;1003;48.002;7.788;2023-03-14T09:27:09;12.80;99.90
2002;DHT22;1003;48.002;7.788;2023-03-14T09:29:36;12.80;99.90
2002;DHT22;1003;48.002;7.788;2023-03-14T09:32:03;12.60;99.90
2002;DHT22;1003;48.002;7.788;2023-03-14T09:34:32;12.60;99.90
2002;DHT22;1003;48.002;7.788;2023-03-14T09:36:59;12.60;99.90
2002;DHT22;1003;48.002;7.788;2023-03-14T09:39:27;12.40;99.90
2002;DHT22;1003;48.002;7.788;2023-03-14T09:41:55;12.30;99.90
2002;DHT22;1003;48.002;7.788;2023-03-14T09:44:27;12.30;99.90
2002;DHT22;1003;48.002;7.788;2023-03-14T09:47:00;12.30;99.90
2002;DHT22;1003;48.002;7.788;2023-03-14T09:49:33;12.20;99.90
2002;DHT22;1003;48.002;7.788;2023-03-14T09:52:10;12.10;99.90
2002;DHT22;1003;48.002;7.788;2023-03-14T09:54:43;12.00;99.90
2002;DHT22;1003;48.002;7.788;2023-03-14T09:57:15;12.00;99.90
2002;DHT22;1003;48.002;7.788;2023-03-14T09:59:45;11.90;99.90
2002;DHT22;1003;48.002;7.788;2023-03-14T10:02:18;11.80;99.90
2002;DHT22;1003;48.002;7.788;2023-03-14T10:04:50;11.70;99.90
2002;DHT22;1003;48.002;7.788;2023-03-14T10:07:23;11.80;99.90
2002;DHT22;1003;48.002;7.788;2023-03-14T10:09:55;11.70;99.90
2002;DHT22;1003;48.002;7.788;2023-03-14T10:12:30;11.60;99.90
2002;DHT22;1003;48.002;7.788;2023-03-14T10:15:03;11.70;99.90
2002;DHT22;1003;48.002;7.788;2023-03-14T10:17:38;11.80;99.90
2002;DHT22;1003;48.002;7.788;2023-03-14T10:20:26;11.90;99.90
2002;DHT22;1003;48.002;7.788;2023-03-14T10:22:58;12.00;99.90
2002;DHT22;1003;48.002;7.788;2023-03-14T10:25:28;11.80;99.90
2002;DHT22;1003;48.002;7.788;2023-03-14T10:27:57;11.90;99.90
2002;DHT22;1003;48.002;7.788;2023-03-14T10:30:33;12.00;99.90
2002;DHT22;1003;48.002;7.788;2023-03-14T10:33:10;11.90;99.90
2002;DHT22;1003;48.002;7.788;2023-03-14T10:35:48;12.10;99.90
2002;DHT22;1003;48.002;7.788;2023-03-14T10:38:20;11.90;99.90
2002;DHT22;1003;48.002;7.788;2023-03-14T10:40:53;11.90;99.90
2002;DHT22;1003;48.002;7.788;2023-03-14T10:43:24;11.90;99.90
2002;DHT22;1003;48.002;7.788;2023-03-14T10:45:55;11.80;99.90
2002;DHT22;1003;48.002;7.788;2023-03-14T10:48:30;11.90;99.90
2002;DHT22;1003;48.002;7.788;2023-03-14T10:51:05;11.80;99.90
2002;DHT22;1003;48.002;7.788;2023-03-14T10:53:39;11.80;99.90
2002;DHT22;1003;48.002;7.788;2023-03-14T10:56:12;11.80;99.90
2002;DHT22;1003;48.002;7.788;2023-03-14T10:58:41;11.80;99.90
2002;DHT22;1003;48.002;7.788;2023-03-14T11:01:22;12.00;99.90
2002;DHT22;1003;48.002;7.788;2023-03-14T11:04:03;11.90;99.90
2002;DHT22;1003;48.002;7.788;2023-03-14T11:06:45;12.10;99.90
2002;DHT22;1003;48.002;7.788;2023-03-14T11:09:23;11.90;99.90
2002;DHT22;1003;48.002;7.788;2023-03-14T11:12:02;11.90;99.90
2002;DHT22;1003;48.002;7.788;2023-03-14T11:14:44;12.00;99.90
2002;DHT22;1003;48.002;7.788;2023-03-14T11:17:23;12.30;99.90
2002;DHT22;1003;48.002;7.788;2023-03-14T11:20:07;12.20;99.90
2002;DHT22;1003;48.002;7.788;2023-03-14T11:22:56;12.10;99.90
2002;DHT22;1003;48.002;7.788;2023-03-14T11:25:32;12.20;99.90
2002;DHT22;1003;48.002;7.788;2023-03-14T11:28:17;12.00;99.90
2002;DHT22;1003;48.002;7.788;2023-03-14T11:30:51;11.80;99.90
2002;DHT22;1003;48.002;7.788;2023-03-14T11:33:23;11.60;99.90
2002;DHT22;1003;48.002;7.788;2023-03-14T11:35:59;10.30;99.90
2002;DHT22;1003;48.002;7.788;2023-03-14T11:38:38;9.30;99.90
2002;DHT22;1003;48.002;7.788;2023-03-14T11:41:14;8.90;99.90
2002;DHT22;1003;48.002;7.788;2023-03-14T11:43:48;9.00;99.90
2002;DHT22;1003;48.002;7.788;2023-03-14T11:46:35;9.20;99.90
2002;DHT22;1003;48.002;7.788;2023-03-14T11:49:07;9.70;99.90
2002;DHT22;1003;48.002;7.788;2023-03-14T11:51:43;10.00;99.90
2002;DHT22;1003;48.002;7.788;2023-03-14T11:54:20;10.00;99.90
2002;DHT22;1003;48.002;7.788;2023-03-14T11:56:58;10.10;99.90
2002;DHT22;1003;48.002;7.788;2023-03-14T11:59:29;10.30;99.90
2002;DHT22;1003;48.002;7.788;2023-03-14T12:02:02;10.50;99.90
2002;DHT22;1003;48.002;7.788;2023-03-14T12:04:47;10.70;99.90
2002;DHT22;1003;48.002;7.788;2023-03-14T12:07:27;11.00;99.90
2002;DHT22;1003;48.002;7.788;2023-03-14T12:10:02;11.00;99.90
2002;DHT22;1003;48.002;7.788;2023-03-14T12:12:30;11.00;99.90
2002;DHT22;1003;48.002;7.788;2023-03-14T12:15:00;11.10;99.90
2002;DHT22;1003;48.002;7.788;2023-03-14T12:17:35;11.10;99.90
2002;DHT22;1003;48.002;7.788;2023-03-14T12:20:12;11.20;99.90
2002;DHT22;1003;48.002;7.788;2023-03-14T12:22:45;11.40;99.90
2002;DHT22;1003;48.002;7.788;2023-03-14T12:25:18;11.60;99.90
2002;DHT22;1003;48.002;7.788;2023-03-14T12:28:03;12.30;99.90
2002;DHT22;1003;48.002;7.788;2023-03-14T12:30:43;12.10;99.90
2002;DHT22;1003;48.002;7.788;2023-03-14T12:36:04;12.40;99.90
2002;DHT22;1003;48.002;7.788;2023-03-14T12:38:52;12.30;99.90
2002;DHT22;1003;48.002;7.788;2023-03-14T12:41:36;12.50;99.90
2002;DHT22;1003;48.002;7.788;2023-03-14T12:47:53;12.90;99.90
2002;DHT22;1003;48.002;7.788;2023-03-14T12:50:38;12.80;99.90
2002;DHT22;1003;48.002;7.788;2023-03-14T12:57:06;13.00;99.90
2002;DHT22;1003;48.002;7.788;2023-03-14T12:59:46;12.30;99.90
2002;DHT22;1003;48.002;7.788;2023-03-14T13:02:23;11.80;99.90
2002;DHT22;1003;48.002;7.788;2023-03-14T13:05:01;11.20;99.90
2002;DHT22;1003;48.002;7.788;2023-03-14T13:10:39;10.80;99.90
2002;DHT22;1003;48.002;7.788;2023-03-14T13:13:19;10.60;99.90
2002;DHT22;1003;48.002;7.788;2023-03-14T13:15:49;10.60;99.90
2002;DHT22;1003;48.002;7.788;2023-03-14T13:18:27;10.80;99.90
2002;DHT22;1003;48.002;7.788;2023-03-14T13:21:02;11.00;99.90
2002;DHT22;1003;48.002;7.788;2023-03-14T13:23:36;11.40;99.90
2002;DHT22;1003;48.002;7.788;2023-03-14T13:26:09;11.30;99.90
2002;DHT22;1003;48.002;7.788;2023-03-14T13:28:41;11.00;99.90
2002;DHT22;1003;48.002;7.788;2023-03-14T13:31:20;10.80;99.90
2002;DHT22;1003;48.002;7.788;2023-03-14T13:34:00;10.80;99.90
2002;DHT22;1003;48.002;7.788;2023-03-14T13:36:29;10.60;99.90
2002;DHT22;1003;48.002;7.788;2023-03-14T13:38:57;10.40;99.90
2002;DHT22;1003;48.002;7.788;2023-03-14T13:41:25;10.20;99.90
2002;DHT22;1003;48.002;7.788;2023-03-14T13:44:00;10.10;99.90
2002;DHT22;1003;48.002;7.788;2023-03-14T13:46:34;10.20;99.90
2002;DHT22;1003;48.002;7.788;2023-03-14T13:49:04;10.20;99.90
2002;DHT22;1003;48.002;7.788;2023-03-14T13:51:38;10.30;99.90
2002;DHT22;1003;48.002;7.788;2023-03-14T13:54:14;10.10;99.90
2002;DHT22;1003;48.002;7.788;2023-03-14T13:56:42;10.30;99.90
2002;DHT22;1003;48.002;7.788;2023-03-14T13:59:22;10.40;99.90
2002;DHT22;1003;48.002;7.788;2023-03-14T14:01:50;10.50;99.90
2002;DHT22;1003;48.002;7.788;2023-03-14T14:04:21;10.40;99.90
2002;DHT22;1003;48.002;7.788;2023-03-14T14:06:53;10.40;99.90
2002;DHT22;1003;48.002;7.788;2023-03-14T14:09:25;10.30;99.90
2002;DHT22;1003;48.002;7.788;2023-03-14T14:11:55;10.10;99.90
2002;DHT22;1003;48.002;7.788;2023-03-14T14:14:30;10.00;99.90
2002;DHT22;1003;48.002;7.788;2023-03-14T14:17:00;10.00;99.90
2002;DHT22;1003;48.002;7.788;2023-03-14T14:19:32;10.00;99.90
2002;DHT22;1003;48.002;7.788;2023-03-14T14:22:01;10.10;99.90
2002;DHT22;1003;48.002;7.788;2023-03-14T14:24:32;10.10;99.90
2002;DHT22;1003;48.002;7.788;2023-03-14T14:27:11;10.00;99.90
2002;DHT22;1003;48.002;7.788;2023-03-14T14:29:42;10.10;99.90
2002;DHT22;1003;48.002;7.788;2023-03-14T14:32:13;10.40;99.90
2002;DHT22;1003;48.002;7.788;2023-03-14T14:34:42;10.70;99.90
2002;DHT22;1003;48.002;7.788;2023-03-14T14:37:19;11.00;99.90
2002;DHT22;1003;48.002;7.788;2023-03-14T14:39:49;11.20;99.90
2002;DHT22;1003;48.002;7.788;2023-03-14T14:42:20;11.20;99.90
2002;DHT22;1003;48.002;7.788;2023-03-14T14:44:51;11.40;99.90
2002;DHT22;1003;48.002;7.788;2023-03-14T14:47:20;11.50;99.90
2002;DHT22;1003;48.002;7.788;2023-03-14T14:49:51;11.60;99.90
2002;DHT22;1003;48.002;7.788;2023-03-14T14:52:22;11.80;99.90
2002;DHT22;1003;48.002;7.788;2023-03-14T14:55:00;11.70;99.90
2002;DHT22;1003;48.002;7.788;2023-03-14T14:57:30;11.60;99.90
2002;DHT22;1003;48.002;7.788;2023-03-14T15:00:06;11.60;99.90
2002;DHT22;1003;48.002;7.788;2023-03-14T15:02:40;11.40;99.90
2002;DHT22;1003;48.002;7.788;2023-03-14T15:05:13;11.30;99.90
2002;DHT22;1003;48.002;7.788;2023-03-14T15:07:41;11.40;99.90
2002;DHT22;1003;48.002;7.788;2023-03-14T15:10:11;11.20;99.90
2002;DHT22;1003;48.002;7.788;2023-03-14T15:12:39;11.40;99.90
2002;DHT22;1003;48.002;7.788;2023-03-14T15:15:09;11.40;99.90
2002;DHT22;1003;48.002;7.788;2023-03-14T15:17:37;11.20;99.90
2002;DHT22;1003;48.002;7.788;2023-03-14T15:20:10;11.10;99.90
2002;DHT22;1003;48.002;7.788;2023-03-14T15:22:39;11.10;99.90
2002;DHT22;1003;48.002;7.788;2023-03-14T15:25:07;11.10;99.90
2002;DHT22;1003;48.002;7.788;2023-03-14T15:27:35;11.10;99.90
2002;DHT22;1003;48.002;7.788;2023-03-14T15:30:12;11.10;99.90
2002;DHT22;1003;48.002;7.788;2023-03-14T15:32:40;11.50;99.90
2002;DHT22;1003;48.002;7.788;2023-03-14T15:35:08;11.70;99.90
2002;DHT22;1003;48.002;7.788;2023-03-14T15:37:35;11.60;99.90
2002;DHT22;1003;48.002;7.788;2023-03-14T15:40:03;11.40;99.90
2002;DHT22;1003;48.002;7.788;2023-03-14T15:42:37;11.30;99.90
2002;DHT22;1003;48.002;7.788;2023-03-14T15:45:05;11.10;99.90
2002;DHT22;1003;48.002;7.788;2023-03-14T15:47:34;11.20;99.90
2002;DHT22;1003;48.002;7.788;2023-03-14T15:50:01;11.00;99.90
2002;DHT22;1003;48.002;7.788;2023-03-14T15:52:29;10.90;99.90
2002;DHT22;1003;48.002;7.788;2023-03-14T15:54:56;10.80;99.90
2002;DHT22;1003;48.002;7.788;2023-03-14T15:57:23;10.60;99.90
2002;DHT22;1003;48.002;7.788;2023-03-14T15:59:50;10.50;99.90
2002;DHT22;1003;48.002;7.788;2023-03-14T16:02:17;10.40;99.90
2002;DHT22;1003;48.002;7.788;2023-03-14T16:04:45;10.30;99.90
2002;DHT22;1003;48.002;7.788;2023-03-14T16:07:12;10.30;99.90
2002;DHT22;1003;48.002;7.788;2023-03-14T16:09:39;10.40;99.90
2002;DHT22;1003;48.002;7.788;2023-03-14T16:12:07;10.50;99.90
2002;DHT22;1003;48.002;7.788;2023-03-14T16:14:34;10.60;99.90
2002;DHT22;1003;48.002;7.788;2023-03-14T16:17:01;10.40;99.90
2002;DHT22;1003;48.002;7.788;2023-03-14T16:19:36;10.40;99.90
2002;DHT22;1003;48.002;7.788;2023-03-14T16:22:04;10.40;99.90
2002;DHT22;1003;48.002;7.788;2023-03-14T16:24:31;10.40;99.90
2002;DHT22;1003;48.002;7.788;2023-03-14T16:26:58;10.10;99.90
2002;DHT22;1003;48.002;7.788;2023-03-14T16:29:25;9.70;99.90
2002;DHT22;1003;48.002;7.788;2023-03-14T16:31:52;9.40;99.90
2002;DHT22;1003;48.002;7.788;2023-03-14T16:34:19;9.10;99.90